Time;durP1;ratioP1;P1;durP2;ratioP2;P2;SDS_P1;SDS_P2;PMS_P1;PMS_P2;Temp;Humidity;BMP_temperature;BMP_pressure;BME280_temperature;BME280_humidity;BME280_pressure;Samples;Min_cycle;Max_cycle;Signal;HPM_P1;HPM_P2
2021/12/20 09:51:13;;;;;;;9.68;3.13;;;;;;;;;;5131324;27;20371;-87
2021/12/20 09:53:40;;;;;;;8.80;2.53;;;;;;;;;;5120936;28;20428;-86
2021/12/20 09:56:07;;;;;;;11.80;2.80;;;;;;;;;;5130824;27;20043;-87
2021/12/20 09:58:35;;;;;;;9.43;2.65;;;;;;;;;;5131393;27;20108;-86
2021/12/20 10:01:01;;;;;;;7.22;1.98;;;;;;;;;;5131415;27;20088;-86
2021/12/20 10:03:28;;;;;;;8.93;2.22;;;;;;;;;;5129690;28;20116;-87
2021/12/20 10:05:56;;;;;;;6.95;2.00;;;;;;;;;;5129738;27;20046;-88
2021/12/20 10:08:31;;;;;;;10.88;4.88;;;;;;;;;;5129716;28;20448;-86
2021/12/20 10:10:58;;;;;;;16.00;4.20;;;;;;;;;;5129498;28;20055;-87
2021/12/20 10:13:26;;;;;;;16.35;5.68;;;;;;;;;;5129580;28;20107;-86
2021/12/20 10:15:53;;;;;;;14.60;4.53;;;;;;;;;;5131043;27;20120;-85
2021/12/20 10:18:19;;;;;;;18.25;7.10;;;;;;;;;;5130677;27;20039;-86
2021/12/20 10:20:56;;;;;;;14.13;5.60;;;;;;;;;;5112678;28;20043;-87
2021/12/20 10:23:26;;;;;;;16.92;5.10;;;;;;;;;;5130550;27;20039;-87
2021/12/20 10:25:53;;;;;;;20.55;5.70;;;;;;;;;;5129416;28;20040;-87
2021/12/20 10:28:22;;;;;;;17.10;6.65;;;;;;;;;;5130513;27;20065;-86
2021/12/20 10:30:49;;;;;;;18.70;5.80;;;;;;;;;;5129115;28;20118;-87
2021/12/20 10:33:17;;;;;;;14.05;5.88;;;;;;;;;;5130330;27;20044;-87
2021/12/20 10:35:52;;;;;;;21.48;5.85;;;;;;;;;;5133041;27;20046;-86
2021/12/20 10:38:26;;;;;;;18.10;5.60;;;;;;;;;;5130483;27;20118;-86
2021/12/20 10:40:55;;;;;;;17.58;5.60;;;;;;;;;;5129024;28;20123;-86
2021/12/20 10:43:22;;;;;;;24.67;6.05;;;;;;;;;;5128790;28;20039;-87
2021/12/20 10:45:50;;;;;;;21.65;6.38;;;;;;;;;;5130443;27;20048;-87
2021/12/20 10:48:16;;;;;;;23.20;6.65;;;;;;;;;;5129903;27;20044;-87
2021/12/20 10:50:42;;;;;;;19.98;5.95;;;;;;;;;;5130061;27;20470;-86
2021/12/20 10:53:17;;;;;;;18.45;5.20;;;;;;;;;;5130131;27;20402;-87
2021/12/20 10:55:43;;;;;;;26.90;5.70;;;;;;;;;;5129095;28;20062;-88
2021/12/20 10:58:32;;;;;;;23.75;4.82;;;;;;;;;;5128635;28;20035;-87
2021/12/20 11:01:04;;;;;;;22.25;5.43;;;;;;;;;;5124318;28;20073;-89
2021/12/20 11:03:35;;;;;;;18.38;4.72;;;;;;;;;;5116262;28;20457;-86
2021/12/20 11:11:22;;;;;;;25.90;5.05;;;;;;;;;;5117316;28;20048;-85
2021/12/20 11:13:48;;;;;;;23.25;5.00;;;;;;;;;;5114618;28;20124;-87
2021/12/20 11:16:28;;;;;;;22.85;4.82;;;;;;;;;;5116245;28;20036;-86
2021/12/20 11:19:07;;;;;;;20.83;4.43;;;;;;;;;;5114651;28;20051;-87
2021/12/20 11:21:33;;;;;;;27.70;6.32;;;;;;;;;;5114753;28;20551;-88
2021/12/20 11:24:00;;;;;;;19.92;5.13;;;;;;;;;;5115838;28;20044;-86
2021/12/20 11:26:27;;;;;;;24.15;6.32;;;;;;;;;;5114830;28;20047;-86
2021/12/20 11:28:53;;;;;;;19.50;4.78;;;;;;;;;;5114727;28;20050;-86
2021/12/20 11:31:19;;;;;;;23.45;5.47;;;;;;;;;;5114652;28;20044;-84
2021/12/20 11:33:45;;;;;;;21.63;5.85;;;;;;;;;;5114266;28;20054;-86
2021/12/20 11:36:12;;;;;;;27.48;5.15;;;;;;;;;;5114423;28;20051;-85
2021/12/20 11:38:39;;;;;;;22.63;5.35;;;;;;;;;;5115564;27;20058;-84
2021/12/20 11:41:05;;;;;;;20.63;4.22;;;;;;;;;;5114442;28;20376;-85
2021/12/20 11:43:31;;;;;;;24.65;4.55;;;;;;;;;;5114224;28;20097;-85
2021/12/20 11:45:58;;;;;;;17.80;5.15;;;;;;;;;;5114066;28;20044;-85
2021/12/20 11:48:25;;;;;;;21.45;5.15;;;;;;;;;;5114137;28;20043;-85
2021/12/20 11:50:55;;;;;;;18.13;5.40;;;;;;;;;;5113770;28;20499;-85
2021/12/20 11:53:21;;;;;;;16.55;5.38;;;;;;;;;;5113999;28;20063;-87
2021/12/20 11:55:51;;;;;;;18.42;4.88;;;;;;;;;;5114040;28;20372;-85
2021/12/20 11:58:19;;;;;;;19.70;5.38;;;;;;;;;;5117126;28;20040;-87
2021/12/20 12:00:50;;;;;;;21.52;5.03;;;;;;;;;;5114127;28;20126;-84
2021/12/20 12:03:16;;;;;;;23.65;5.70;;;;;;;;;;5113564;28;20043;-87
2021/12/20 12:05:52;;;;;;;17.98;5.05;;;;;;;;;;5096648;28;20181;-87
2021/12/20 12:08:21;;;;;;;19.67;4.20;;;;;;;;;;5096694;28;20041;-86
2021/12/20 12:10:47;;;;;;;16.60;4.90;;;;;;;;;;5113500;28;20478;-87
2021/12/20 12:13:16;;;;;;;13.52;3.53;;;;;;;;;;5112474;28;20039;-86
2021/12/20 12:15:52;;;;;;;21.20;4.13;;;;;;;;;;5113679;28;20046;-86
2021/12/20 12:18:18;;;;;;;20.92;5.13;;;;;;;;;;5113334;28;20043;-86
2021/12/20 12:20:53;;;;;;;18.73;4.88;;;;;;;;;;5114845;28;20036;-86
2021/12/20 12:23:26;;;;;;;18.55;4.00;;;;;;;;;;5113415;28;20440;-88
2021/12/20 12:25:53;;;;;;;15.60;4.00;;;;;;;;;;5114783;28;20040;-86
2021/12/20 12:28:20;;;;;;;18.60;4.35;;;;;;;;;;5114668;28;20063;-86
2021/12/20 12:30:58;;;;;;;12.90;3.60;;;;;;;;;;5114593;28;20040;-87
2021/12/20 12:33:32;;;;;;;16.75;4.50;;;;;;;;;;5112990;28;20039;-86
2021/12/20 12:36:00;;;;;;;17.45;4.63;;;;;;;;;;5114457;28;20035;-86
2021/12/20 12:38:27;;;;;;;14.70;5.10;;;;;;;;;;5114327;28;20093;-87
2021/12/20 12:41:08;;;;;;;22.60;4.82;;;;;;;;;;5113035;28;20454;-85
2021/12/20 12:43:52;;;;;;;23.75;5.75;;;;;;;;;;5113068;28;20047;-86
2021/12/20 12:46:37;;;;;;;15.82;4.38;;;;;;;;;;5112881;28;20578;-87
2021/12/20 12:49:19;;;;;;;22.50;5.10;;;;;;;;;;5112405;28;20043;-84
2021/12/20 12:51:45;;;;;;;19.95;4.80;;;;;;;;;;5114268;28;20122;-86
2021/12/20 12:54:31;;;;;;;17.58;5.25;;;;;;;;;;5112595;28;20035;-87
2021/12/20 12:57:17;;;;;;;18.42;7.47;;;;;;;;;;5113816;28;20169;-87
2021/12/20 12:59:42;;;;;;;;;;;;;;;;;;5112947;28;20051;-88
2021/12/20 13:02:10;;;;;;;14.35;3.72;;;;;;;;;;5113798;28;20010;-88
2021/12/20 13:04:55;;;;;;;15.13;4.13;;;;;;;;;;5113868;28;20169;-87
2021/12/20 13:07:26;;;;;;;16.45;3.90;;;;;;;;;;5112741;28;20105;-87
2021/12/20 13:09:53;;;;;;;19.98;3.40;;;;;;;;;;5112279;28;20075;-87
2021/12/20 13:13:07;;;;;;;19.13;3.72;;;;;;;;;;5112519;28;20126;-88
2021/12/20 13:17:48;;;;;;;17.30;3.75;;;;;;;;;;5112537;28;20123;-86
2021/12/20 13:20:22;;;;;;;16.45;3.53;;;;;;;;;;5112574;28;20054;-87
2021/12/20 13:22:56;;;;;;;17.23;4.00;;;;;;;;;;5112180;28;20039;-87
2021/12/20 13:25:34;;;;;;;21.88;4.57;;;;;;;;;;5113104;28;20126;-87
2021/12/20 13:28:00;;;;;;;13.68;3.95;;;;;;;;;;5112186;28;20490;-87
2021/12/20 13:30:46;;;;;;;11.70;3.97;;;;;;;;;;5113493;28;20036;-86
2021/12/20 13:33:13;;;;;;;14.65;4.72;;;;;;;;;;5113511;28;20039;-86
2021/12/20 13:35:40;;;;;;;17.10;4.95;;;;;;;;;;5095162;28;20036;-86
2021/12/20 13:38:15;;;;;;;11.02;3.88;;;;;;;;;;5112291;28;20078;-86
2021/12/20 13:40:41;;;;;;;;;;;;;;;;;;5112341;28;20055;-87
2021/12/20 13:43:10;;;;;;;16.10;3.53;;;;;;;;;;5111856;28;19915;-85
2021/12/20 13:45:36;;;;;;;12.70;3.03;;;;;;;;;;5112086;28;20078;-86
2021/12/20 13:48:06;;;;;;;15.27;3.53;;;;;;;;;;5112225;28;20070;-85
2021/12/20 13:50:32;;;;;;;14.07;3.60;;;;;;;;;;5111505;28;20051;-86
2021/12/20 13:52:58;;;;;;;12.63;3.28;;;;;;;;;;5112913;28;20040;-86
2021/12/20 13:55:24;;;;;;;19.52;3.55;;;;;;;;;;5111701;28;20534;-87
2021/12/20 13:57:50;;;;;;;14.90;3.63;;;;;;;;;;5111877;28;20043;-86
2021/12/20 14:00:16;;;;;;;10.88;3.45;;;;;;;;;;5112974;28;20048;-86
2021/12/20 14:02:43;;;;;;;17.38;4.40;;;;;;;;;;5111923;28;20364;-87
2021/12/20 14:05:14;;;;;;;17.33;4.05;;;;;;;;;;5094618;28;20040;-86
2021/12/20 14:07:43;;;;;;;15.13;3.83;;;;;;;;;;5111964;28;20112;-86
2021/12/20 14:10:14;;;;;;;14.27;3.72;;;;;;;;;;5112655;28;20043;-86
2021/12/20 14:12:41;;;;;;;11.45;3.80;;;;;;;;;;5111847;28;20127;-86
2021/12/20 14:15:08;;;;;;;17.00;3.67;;;;;;;;;;5112892;28;20042;-86
2021/12/20 14:17:52;;;;;;;13.15;3.63;;;;;;;;;;5111465;28;20050;-86
2021/12/20 14:20:19;;;;;;;18.33;3.83;;;;;;;;;;5111859;28;20490;-86
2021/12/20 14:22:55;;;;;;;15.20;4.30;;;;;;;;;;5111583;28;20036;-85
2021/12/20 14:25:29;;;;;;;13.40;4.10;;;;;;;;;;5111823;28;20090;-86
2021/12/20 14:27:59;;;;;;;15.52;4.13;;;;;;;;;;5111765;28;20071;-86
2021/12/20 14:30:25;;;;;;;10.65;3.53;;;;;;;;;;5112702;28;20054;-86
2021/12/20 14:32:51;;;;;;;14.73;4.20;;;;;;;;;;5114801;28;20047;-86
2021/12/20 14:35:23;;;;;;;17.83;3.75;;;;;;;;;;5111524;28;20486;-83
2021/12/20 14:37:51;;;;;;;13.13;3.92;;;;;;;;;;5116518;28;20036;-85
2021/12/20 14:40:35;;;;;;;16.77;4.22;;;;;;;;;;5115219;28;20044;-87
2021/12/20 14:43:02;;;;;;;16.67;4.72;;;;;;;;;;5115323;28;20035;-87
2021/12/20 14:45:29;;;;;;;12.85;3.90;;;;;;;;;;5116682;27;20053;-86
2021/12/20 14:48:14;;;;;;;14.05;3.72;;;;;;;;;;5115480;28;20375;-86
2021/12/20 14:50:44;;;;;;;12.10;3.55;;;;;;;;;;5114811;28;20551;-86
2021/12/20 14:53:17;;;;;;;10.63;3.38;;;;;;;;;;5116752;28;20051;-87
2021/12/20 14:55:43;;;;;;;13.23;4.32;;;;;;;;;;5114892;28;20063;-86
2021/12/20 14:58:09;;;;;;;15.15;3.80;;;;;;;;;;5116598;28;20379;-85
2021/12/20 15:00:36;;;;;;;13.80;4.03;;;;;;;;;;5115183;28;20040;-85
2021/12/20 15:03:02;;;;;;;12.35;4.32;;;;;;;;;;5115182;28;20130;-86
2021/12/20 15:05:28;;;;;;;13.88;4.45;;;;;;;;;;5114819;28;20071;-85
2021/12/20 15:07:54;;;;;;;13.60;3.45;;;;;;;;;;5114858;28;20047;-85
2021/12/20 15:10:21;;;;;;;10.10;3.28;;;;;;;;;;5114656;28;20407;-86
2021/12/20 15:12:47;;;;;;;14.35;3.65;;;;;;;;;;5114699;28;20049;-87
2021/12/20 15:15:13;;;;;;;12.75;3.58;;;;;;;;;;5115998;28;20039;-85
2021/12/20 15:17:39;;;;;;;9.65;3.08;;;;;;;;;;5116194;28;20067;-86
2021/12/20 15:20:06;;;;;;;11.63;3.60;;;;;;;;;;5097888;28;20058;-87
2021/12/20 15:22:32;;;;;;;11.73;3.42;;;;;;;;;;5114810;28;20525;-85
2021/12/20 15:24:59;;;;;;;10.90;3.20;;;;;;;;;;5114795;28;20062;-86
2021/12/20 15:27:26;;;;;;;15.23;3.53;;;;;;;;;;5114481;28;20490;-88
2021/12/20 15:29:52;;;;;;;12.00;4.03;;;;;;;;;;5114366;28;20055;-85
2021/12/20 15:32:18;;;;;;;11.52;3.85;;;;;;;;;;5115927;28;20089;-86
2021/12/20 15:34:47;;;;;;;15.70;5.10;;;;;;;;;;5114493;28;20081;-86
2021/12/20 15:37:13;;;;;;;12.05;3.88;;;;;;;;;;5097528;28;20439;-88
2021/12/20 15:39:39;;;;;;;13.63;3.92;;;;;;;;;;5115523;28;20117;-86
2021/12/20 15:42:10;;;;;;;12.00;4.10;;;;;;;;;;5115799;28;20044;-88
2021/12/20 15:44:36;;;;;;;11.05;3.90;;;;;;;;;;5115694;28;20044;-87
2021/12/20 15:47:03;;;;;;;14.13;3.28;;;;;;;;;;5117835;27;20116;-86
2021/12/20 15:49:29;;;;;;;12.25;3.35;;;;;;;;;;5113835;28;20051;-87
2021/12/20 15:51:55;;;;;;;15.52;4.35;;;;;;;;;;5115295;28;20039;-87
2021/12/20 15:54:21;;;;;;;12.07;3.35;;;;;;;;;;5115162;28;20042;-87
2021/12/20 15:56:47;;;;;;;10.48;3.05;;;;;;;;;;5115409;28;20114;-87
2021/12/20 15:59:13;;;;;;;14.43;4.10;;;;;;;;;;5115459;28;20116;-88
2021/12/20 16:01:39;;;;;;;11.32;3.55;;;;;;;;;;5115436;28;20036;-87
2021/12/20 16:04:05;;;;;;;15.82;4.63;;;;;;;;;;5114061;28;20072;-88
2021/12/20 16:06:31;;;;;;;11.65;3.45;;;;;;;;;;5115175;28;20050;-86
2021/12/20 16:08:57;;;;;;;9.95;4.38;;;;;;;;;;5113753;28;20036;-86
2021/12/20 16:11:22;;;;;;;11.07;2.97;;;;;;;;;;5113543;28;20040;-86
2021/12/20 16:13:48;;;;;;;13.40;3.65;;;;;;;;;;5113936;28;20126;-87
2021/12/20 16:16:14;;;;;;;13.18;4.38;;;;;;;;;;5113463;28;20596;-87
2021/12/20 16:18:40;;;;;;;15.43;4.45;;;;;;;;;;5113627;28;20044;-87
2021/12/20 16:21:06;;;;;;;10.98;3.55;;;;;;;;;;5114946;28;20039;-87
2021/12/20 16:23:32;;;;;;;11.07;3.67;;;;;;;;;;5114611;28;20487;-85
2021/12/20 16:25:59;;;;;;;9.13;3.03;;;;;;;;;;5114530;28;20085;-86
2021/12/20 16:28:25;;;;;;;12.18;3.22;;;;;;;;;;5113451;28;20045;-87
2021/12/20 16:30:54;;;;;;;11.35;3.50;;;;;;;;;;5113112;28;20122;-85
2021/12/20 16:33:20;;;;;;;8.07;3.80;;;;;;;;;;5114673;28;20040;-86
2021/12/20 16:35:47;;;;;;;12.65;3.05;;;;;;;;;;5113265;28;20174;-86
2021/12/20 16:38:13;;;;;;;11.80;3.63;;;;;;;;;;5113461;28;20044;-85
2021/12/20 16:40:39;;;;;;;13.38;5.15;;;;;;;;;;5113160;28;20126;-86
2021/12/20 16:43:05;;;;;;;16.95;7.20;;;;;;;;;;5113989;28;20360;-87
2021/12/20 16:45:41;;;;;;;16.00;6.30;;;;;;;;;;5113065;28;20074;-87
2021/12/20 16:48:14;;;;;;;14.77;6.38;;;;;;;;;;5114478;28;20063;-85
2021/12/20 16:50:40;;;;;;;14.38;5.28;;;;;;;;;;5095748;28;20081;-87
2021/12/20 16:53:07;;;;;;;14.02;5.78;;;;;;;;;;5095735;28;20043;-87
2021/12/20 16:55:35;;;;;;;16.70;5.55;;;;;;;;;;5114095;28;20097;-85
2021/12/20 16:58:01;;;;;;;13.73;4.47;;;;;;;;;;5114284;28;20032;-86
2021/12/20 17:00:27;;;;;;;14.23;5.72;;;;;;;;;;5112089;28;20490;-86
2021/12/20 17:03:00;;;;;;;14.88;5.10;;;;;;;;;;5112576;28;20048;-84
2021/12/20 17:08:10;;;;;;;16.25;5.28;;;;;;;;;;5115804;28;20479;-85
2021/12/20 17:10:36;;;;;;;10.40;4.05;;;;;;;;;;5112548;28;20432;-84
2021/12/20 17:13:02;;;;;;;14.98;5.43;;;;;;;;;;5112363;28;20043;-85
2021/12/20 17:15:28;;;;;;;18.52;5.40;;;;;;;;;;5113658;28;20032;-84
2021/12/20 17:17:54;;;;;;;12.82;6.05;;;;;;;;;;5113805;28;20067;-86
2021/12/20 17:20:20;;;;;;;21.05;6.07;;;;;;;;;;5113801;28;20042;-87
2021/12/20 17:22:46;;;;;;;13.90;4.72;;;;;;;;;;5112120;28;20073;-85
2021/12/20 17:25:12;;;;;;;14.35;5.50;;;;;;;;;;5112489;28;20043;-86
2021/12/20 17:27:38;;;;;;;18.58;7.20;;;;;;;;;;5112165;28;20039;-85
2021/12/20 17:30:05;;;;;;;13.27;6.90;;;;;;;;;;5112268;28;20488;-85
2021/12/20 17:32:31;;;;;;;17.00;5.63;;;;;;;;;;5095417;28;20089;-86
2021/12/20 17:34:57;;;;;;;13.93;5.72;;;;;;;;;;5112496;28;20039;-85
2021/12/20 17:37:23;;;;;;;16.73;6.22;;;;;;;;;;5112265;28;20042;-85
2021/12/20 17:39:49;;;;;;;11.88;4.95;;;;;;;;;;5113324;28;20565;-85
2021/12/20 17:42:14;;;;;;;12.90;5.07;;;;;;;;;;5113329;28;20122;-85
2021/12/20 17:44:41;;;;;;;13.73;4.53;;;;;;;;;;5111983;28;20140;-85
2021/12/20 17:47:07;;;;;;;11.52;4.40;;;;;;;;;;5112247;28;20054;-86
2021/12/20 17:49:33;;;;;;;13.20;4.85;;;;;;;;;;5112097;28;20166;-86
2021/12/20 17:51:59;;;;;;;11.75;4.88;;;;;;;;;;5113349;28;20051;-87
2021/12/20 17:54:25;;;;;;;12.77;4.47;;;;;;;;;;5113153;28;20505;-86
2021/12/20 17:56:51;;;;;;;14.55;4.43;;;;;;;;;;5113444;28;20039;-87
2021/12/20 17:59:20;;;;;;;14.20;5.25;;;;;;;;;;5111954;28;20032;-86
2021/12/20 18:01:46;;;;;;;13.00;4.97;;;;;;;;;;5095057;28;20119;-89
2021/12/20 18:04:13;;;;;;;13.27;5.13;;;;;;;;;;5112342;28;20044;-87
2021/12/20 18:06:40;;;;;;;11.88;5.20;;;;;;;;;;5113273;28;20043;-86
2021/12/20 18:09:06;;;;;;;10.60;5.00;;;;;;;;;;5111829;28;20071;-88
2021/12/20 18:11:33;;;;;;;11.10;4.70;;;;;;;;;;5114343;28;20047;-86
2021/12/20 18:14:00;;;;;;;8.52;4.25;;;;;;;;;;5117120;28;20390;-88
2021/12/20 18:16:27;;;;;;;8.43;3.33;;;;;;;;;;5098754;28;20051;-86
2021/12/20 18:18:53;;;;;;;8.02;4.00;;;;;;;;;;5116098;28;20513;-87
2021/12/20 18:21:19;;;;;;;10.70;4.28;;;;;;;;;;5115955;28;20035;-86
2021/12/20 18:23:45;;;;;;;10.35;4.70;;;;;;;;;;5115818;28;20043;-87
2021/12/20 18:26:11;;;;;;;9.77;4.45;;;;;;;;;;5117273;28;20045;-86
2021/12/20 18:28:39;;;;;;;7.72;3.72;;;;;;;;;;5117068;27;20116;-89
2021/12/20 18:31:05;;;;;;;8.43;3.78;;;;;;;;;;5117192;27;20105;-87
2021/12/20 18:33:31;;;;;;;9.23;3.78;;;;;;;;;;5115369;28;20031;-86
2021/12/20 18:35:57;;;;;;;10.27;3.75;;;;;;;;;;5115572;28;20043;-86
2021/12/20 18:38:28;;;;;;;12.60;3.80;;;;;;;;;;5115506;28;20027;-87
2021/12/20 18:40:56;;;;;;;11.13;3.53;;;;;;;;;;5115665;28;20112;-85
2021/12/20 18:43:22;;;;;;;7.72;3.40;;;;;;;;;;5115453;28;20109;-87
2021/12/20 18:45:48;;;;;;;8.77;3.88;;;;;;;;;;5116951;28;20044;-84
2021/12/20 18:48:19;;;;;;;7.95;3.85;;;;;;;;;;5115490;28;20092;-86
2021/12/20 18:50:46;;;;;;;8.50;4.30;;;;;;;;;;5115104;28;20059;-87
2021/12/20 18:53:12;;;;;;;12.57;4.13;;;;;;;;;;5116549;28;20039;-87
2021/12/20 18:55:38;;;;;;;12.95;4.18;;;;;;;;;;5115352;28;20047;-87
2021/12/20 18:58:04;;;;;;;13.82;4.93;;;;;;;;;;5116521;28;20046;-86
2021/12/20 19:00:30;;;;;;;9.50;4.72;;;;;;;;;;5115107;28;20047;-88
2021/12/20 19:02:56;;;;;;;12.68;4.85;;;;;;;;;;5114808;28;20051;-86
2021/12/20 19:05:22;;;;;;;12.40;4.95;;;;;;;;;;5102827;28;20406;-85
2021/12/20 19:07:48;;;;;;;8.85;3.50;;;;;;;;;;5115082;28;20127;-87
2021/12/20 19:10:15;;;;;;;12.65;4.25;;;;;;;;;;5116082;28;20462;-85
2021/12/20 19:12:41;;;;;;;10.45;4.68;;;;;;;;;;5114696;28;20040;-87
2021/12/20 19:15:07;;;;;;;10.50;5.10;;;;;;;;;;5114905;28;20046;-85
2021/12/20 19:17:33;;;;;;;11.60;5.05;;;;;;;;;;5115947;28;20032;-87
2021/12/20 19:19:59;;;;;;;14.63;5.18;;;;;;;;;;5114750;28;20395;-87
2021/12/20 19:22:25;;;;;;;11.38;5.22;;;;;;;;;;5115564;28;20382;-87
2021/12/20 19:24:51;;;;;;;11.38;4.80;;;;;;;;;;5116089;28;20518;-89
2021/12/20 19:27:18;;;;;;;13.45;6.00;;;;;;;;;;5116045;28;20043;-86
2021/12/20 19:29:44;;;;;;;14.13;5.80;;;;;;;;;;5115923;28;20039;-86
2021/12/20 19:32:10;;;;;;;13.40;5.38;;;;;;;;;;5114725;28;20036;-87
2021/12/20 19:34:36;;;;;;;10.02;4.95;;;;;;;;;;5114949;28;20039;-88
2021/12/20 19:37:04;;;;;;;12.55;4.70;;;;;;;;;;5114403;28;20039;-87
2021/12/20 19:39:33;;;;;;;13.63;5.53;;;;;;;;;;5114431;28;20047;-88
2021/12/20 19:42:00;;;;;;;12.50;5.20;;;;;;;;;;5097272;28;20051;-87
2021/12/20 19:44:25;;;;;;;12.88;6.47;;;;;;;;;;5114460;28;20165;-86
2021/12/20 19:46:52;;;;;;;13.00;5.90;;;;;;;;;;5114258;28;20529;-86
2021/12/20 19:49:19;;;;;;;15.35;6.40;;;;;;;;;;5114070;28;20071;-86
2021/12/20 19:51:46;;;;;;;13.50;6.20;;;;;;;;;;5114327;28;20079;-89
2021/12/20 19:54:12;;;;;;;11.02;6.00;;;;;;;;;;5113862;28;20097;-88
2021/12/20 19:56:38;;;;;;;11.07;6.32;;;;;;;;;;5114094;28;20046;-86
2021/12/20 19:59:12;;;;;;;17.20;6.50;;;;;;;;;;5113878;28;20050;-87
2021/12/20 20:01:38;;;;;;;14.63;7.18;;;;;;;;;;5114089;28;20047;-87
2021/12/20 20:04:04;;;;;;;13.07;6.03;;;;;;;;;;5096927;28;20039;-88
2021/12/20 20:06:31;;;;;;;12.73;5.03;;;;;;;;;;5113676;28;20038;-87
2021/12/20 20:08:56;;;;;;;9.10;4.80;;;;;;;;;;5113514;28;20047;-87
2021/12/20 20:11:23;;;;;;;14.63;4.60;;;;;;;;;;5114894;28;20039;-87
2021/12/20 20:13:48;;;;;;;10.40;5.05;;;;;;;;;;5113559;28;20052;-85
2021/12/20 20:16:14;;;;;;;24.92;5.35;;;;;;;;;;5114614;27;20035;-86
2021/12/20 20:18:43;;;;;;;11.98;4.85;;;;;;;;;;5114823;28;20061;-86
2021/12/20 20:21:09;;;;;;;10.05;4.32;;;;;;;;;;5096704;28;20437;-86
2021/12/20 20:23:37;;;;;;;10.93;4.97;;;;;;;;;;5113219;28;20047;-88
2021/12/20 20:26:03;;;;;;;11.43;5.40;;;;;;;;;;5113443;28;20097;-86
2021/12/20 20:28:29;;;;;;;8.73;4.55;;;;;;;;;;5114414;28;20471;-85
2021/12/20 20:30:55;;;;;;;11.48;5.43;;;;;;;;;;5114479;28;20054;-86
2021/12/20 20:33:21;;;;;;;14.73;5.50;;;;;;;;;;5113830;28;20118;-86
2021/12/20 20:35:47;;;;;;;14.45;6.10;;;;;;;;;;5114318;28;20083;-87
2021/12/20 20:38:13;;;;;;;16.00;5.68;;;;;;;;;;5113018;28;20043;-86
2021/12/20 20:40:42;;;;;;;12.60;5.22;;;;;;;;;;5113024;28;20039;-86
2021/12/20 20:43:08;;;;;;;11.98;5.25;;;;;;;;;;5112971;28;20560;-86
2021/12/20 20:45:34;;;;;;;11.07;5.95;;;;;;;;;;5096169;28;20131;-85
2021/12/20 20:48:00;;;;;;;14.15;6.43;;;;;;;;;;5114033;28;20071;-86
2021/12/20 20:50:26;;;;;;;19.98;8.90;;;;;;;;;;5112600;28;20063;-86
2021/12/20 20:52:53;;;;;;;32.85;8.70;;;;;;;;;;5112541;28;20491;-86
2021/12/20 20:55:19;;;;;;;23.23;7.80;;;;;;;;;;5114020;28;20509;-84
2021/12/20 20:57:45;;;;;;;38.30;7.28;;;;;;;;;;5095705;28;20036;-85
2021/12/20 21:02:56;;;;;;;24.58;5.68;;;;;;;;;;5113884;28;20043;-86
2021/12/20 21:05:25;;;;;;;43.65;6.47;;;;;;;;;;5113799;28;20089;-85
2021/12/20 21:07:51;;;;;;;38.60;6.07;;;;;;;;;;5112698;28;20047;-86
2021/12/20 21:10:17;;;;;;;37.47;5.70;;;;;;;;;;5113585;28;20039;-87
2021/12/20 21:12:43;;;;;;;58.55;6.90;;;;;;;;;;5117421;28;20079;-85
2021/12/20 21:15:09;;;;;;;26.48;6.78;;;;;;;;;;5112537;28;20053;-86
2021/12/20 21:17:36;;;;;;;28.05;7.10;;;;;;;;;;5113803;28;20126;-85
2021/12/20 21:20:03;;;;;;;18.80;6.38;;;;;;;;;;5113745;28;20050;-86
2021/12/20 21:22:29;;;;;;;12.98;7.18;;;;;;;;;;5112558;28;20054;-86
2021/12/20 21:24:55;;;;;;;19.92;7.50;;;;;;;;;;5112352;28;20478;-86
2021/12/20 21:27:21;;;;;;;15.65;8.05;;;;;;;;;;5113538;28;20443;-86
2021/12/20 21:29:47;;;;;;;15.55;8.02;;;;;;;;;;5113675;28;20043;-87
2021/12/20 21:32:13;;;;;;;16.15;7.25;;;;;;;;;;5112218;28;20435;-87
